Terminal Aerodrome Forecast
Issued by NWS

Home | Current Version | Previous Version | Text Only | Print | Product List | Glossary On
Versions: 1 2 3 4 5 6 7 8 9 10 11 12 13 14 15 16 17 18 19 20
792
FTUS41 KBGM 260840 AAA
TAFRME
TAF AMD
KRME 260840Z 2609/2706 VRB04KT P6SM SCT060
      TEMPO 2609/2612 1SM BR BKN001
     FM261600 28010G15KT P6SM SKC
     FM270000 27004KT P6SM SKC=

USA.gov is the U.S. government's official web portal to all federal, state and local government web resources and services.